Historique des mesures à Cassis (13260), France
Quotidien Résumé Juillet 14, 2017 Unités:  Métrique    US   Métrique/US
« Précédent (Jour)
Suivant (Jour) »
Quotidien Hebdomadaire Mensuel Annuel Période au choix
  Maximum: Minimum: Moyenne:
Température: TemperatureC °C 22.9 °C 26.3 °C
Point de rosée: DewpointC °C 10.8 °C 12.6 °C
Humidité: Humidity % 33 % 41 %
Vitesse du vent: 0 km/h 4.2 km/h 28.5 km/h
Rafales: 0 km/h - -
Vent:- - South
Pression: PressurehPa hPa 1007.0 hPa -
Précipitations: 0.0 mm    
Historical Graphs
 
 
Mesures pour : Juillet 14, 2017
Heure Temperature Point de rosée Pression Vent Vitesse du vent Rafales Humidité Pluie (par heure) Conditions
TemperatureC °C DewpointC °C PressurehPa hPa Calm     Humidity % HourlyPrecipMM mm SoftwareType W/m2
00:11 27.5 °C 11.9 °C 1009.4 hPa North 31.4 km/h 36.5 km/h 38 % 0.0 mm open2300-1.11 W/m2
01:11 26.9 °C 12.2 °C 1009.0 hPa North 12.2 km/h 26.7 km/h 40 % 0.0 mm open2300-1.11 W/m2
02:11 26.1 °C 12.2 °C 1009.0 hPa North 15.6 km/h 42.6 km/h 42 % 0.0 mm open2300-1.11 W/m2
03:11 25.3 °C 12.5 °C 1008.4 hPa North 17.4 km/h 58.6 km/h 45 % 0.0 mm open2300-1.11 W/m2
05:11 23.8 °C 13.6 °C 1008.4 hPa NNE 27.7 km/h 45.4 km/h 53 % 0.0 mm open2300-1.11 W/m2
06:11 23.1 °C 13.8 °C 1008.7 hPa WNW 39.4 km/h 56.2 km/h 56 % 0.0 mm open2300-1.11 W/m2
07:11 22.9 °C 13.9 °C 1009.0 hPa NNW 14.5 km/h 59.1 km/h 57 % 0.0 mm open2300-1.11 W/m2
08:11 23.8 °C 14.2 °C 1008.7 hPa NW 27.2 km/h 27.2 km/h 55 % 0.0 mm open2300-1.11 W/m2
09:11 23.9 °C 14.0 °C 1009.4 hPa NNW 21.6 km/h 21.6 km/h 54 % 0.0 mm open2300-1.11 W/m2
10:11 25.2 °C 14.6 °C 1008.7 hPa NW 37 km/h 59.1 km/h 52 % 0.0 mm open2300-1.11 W/m2
11:11 27.6 °C 15.2 °C 1008.7 hPa NNE 4.2 km/h 19.2 km/h 47 % 0.0 mm open2300-1.11 W/m2
12:11 28.4 °C 14.6 °C 1008.7 hPa NNE 33.2 km/h 57.9 km/h 43 % 0.0 mm open2300-1.11 W/m2
13:11 29.4 °C 14.4 °C 1008.4 hPa NW 16.3 km/h 32.3 km/h 40 % 0.0 mm open2300-1.11 W/m2
14:11 30.5 °C 14.6 °C 1008.0 hPa WNW 23.8 km/h 31.9 km/h 38 % 0.0 mm open2300-1.11 W/m2
15:11 31.0 °C 13.7 °C 1007.7 hPa NW 32.3 km/h 32.3 km/h 35 % 0.0 mm open2300-1.11 W/m2
16:11 31.0 °C 13.2 °C 1007.7 hPa WNW 38.3 km/h 38.3 km/h 34 % 0.0 mm open2300-1.11 W/m2
17:11 31.1 °C 12.8 °C 1007.3 hPa North 33.2 km/h 44.1 km/h 33 % 0.0 mm open2300-1.11 W/m2
18:11 31.1 °C 13.3 °C 1007.0 hPa WNW 43.5 km/h 58.6 km/h 34 % 0.0 mm open2300-1.11 W/m2
19:11 30.3 °C 12.6 °C 1007.0 hPa WNW 46.3 km/h 57.9 km/h 34 % 0.0 mm open2300-1.11 W/m2
20:11 29.3 °C 11.7 °C 1007.0 hPa North 50.5 km/h 50.5 km/h 34 % 0.0 mm open2300-1.11 W/m2
21:11 28.1 °C 11.1 °C 1007.3 hPa NNE 39.4 km/h 50.5 km/h 35 % 0.0 mm open2300-1.11 W/m2
22:11 27.3 °C 10.8 °C 1008.0 hPa WNW 42.6 km/h 54.9 km/h 36 % 0.0 mm open2300-1.11 W/m2
23:11 26.5 °C 11.0 °C 1008.7 hPa NNW 34.1 km/h 46.3 km/h 38 % 0.0 mm open2300-1.11 W/m2
Observations météo à CASSIS
WU-History script by Weather Underground - 1 mb